sensor_id;sensor_type;location;lat;lon;timestamp;temperature;humidity
40630;DHT22;26329;40.388;-3.710;2023-02-03T00:08:54;4.50;66.90
40630;DHT22;26329;40.388;-3.710;2023-02-03T00:19:16;4.50;67.20
40630;DHT22;26329;40.388;-3.710;2023-02-03T00:29:32;4.50;67.00
40630;DHT22;26329;40.388;-3.710;2023-02-03T00:39:53;4.30;67.60
40630;DHT22;26329;40.388;-3.710;2023-02-03T00:50:14;4.20;67.50
40630;DHT22;26329;40.388;-3.710;2023-02-03T01:00:31;4.00;68.10
40630;DHT22;26329;40.388;-3.710;2023-02-03T01:10:46;3.90;68.00
40630;DHT22;26329;40.388;-3.710;2023-02-03T01:20:52;3.80;68.30
40630;DHT22;26329;40.388;-3.710;2023-02-03T01:30:56;3.70;68.40
40630;DHT22;26329;40.388;-3.710;2023-02-03T01:40:59;3.50;68.70
40630;DHT22;26329;40.388;-3.710;2023-02-03T01:51:01;3.40;68.80
40630;DHT22;26329;40.388;-3.710;2023-02-03T02:01:04;3.30;69.30
40630;DHT22;26329;40.388;-3.710;2023-02-03T02:11:07;3.20;69.60
40630;DHT22;26329;40.388;-3.710;2023-02-03T02:42:14;3.00;70.80
40630;DHT22;26329;40.388;-3.710;2023-02-03T02:52:18;3.00;71.10
40630;DHT22;26329;40.388;-3.710;2023-02-03T03:02:35;3.00;71.00
40630;DHT22;26329;40.388;-3.710;2023-02-03T03:12:40;3.10;70.70
40630;DHT22;26329;40.388;-3.710;2023-02-03T03:22:48;3.00;70.80
40630;DHT22;26329;40.388;-3.710;2023-02-03T03:32:52;2.90;70.80
40630;DHT22;26329;40.388;-3.710;2023-02-03T03:42:57;2.80;70.90
40630;DHT22;26329;40.388;-3.710;2023-02-03T03:53:02;2.70;70.90
40630;DHT22;26329;40.388;-3.710;2023-02-03T04:03:21;2.80;70.80
40630;DHT22;26329;40.388;-3.710;2023-02-03T04:13:28;2.70;70.60
40630;DHT22;26329;40.388;-3.710;2023-02-03T04:23:35;2.50;70.80
40630;DHT22;26329;40.388;-3.710;2023-02-03T04:33:45;2.50;70.70
40630;DHT22;26329;40.388;-3.710;2023-02-03T04:43:54;2.50;70.70
40630;DHT22;26329;40.388;-3.710;2023-02-03T04:53:56;2.50;70.80
40630;DHT22;26329;40.388;-3.710;2023-02-03T05:03:57;2.40;71.30
40630;DHT22;26329;40.388;-3.710;2023-02-03T05:13:59;2.40;71.50
40630;DHT22;26329;40.388;-3.710;2023-02-03T05:24:02;2.40;71.10
40630;DHT22;26329;40.388;-3.710;2023-02-03T05:34:07;2.40;71.10
40630;DHT22;26329;40.388;-3.710;2023-02-03T05:44:09;2.20;71.40
40630;DHT22;26329;40.388;-3.710;2023-02-03T05:54:11;2.20;71.30
40630;DHT22;26329;40.388;-3.710;2023-02-03T06:04:13;2.10;71.40
40630;DHT22;26329;40.388;-3.710;2023-02-03T06:14:15;2.10;71.30
40630;DHT22;26329;40.388;-3.710;2023-02-03T06:24:17;1.90;71.20
40630;DHT22;26329;40.388;-3.710;2023-02-03T06:34:20;1.90;71.20
40630;DHT22;26329;40.388;-3.710;2023-02-03T06:44:22;1.90;70.90
40630;DHT22;26329;40.388;-3.710;2023-02-03T06:54:26;1.90;71.00
40630;DHT22;26329;40.388;-3.710;2023-02-03T07:04:28;2.00;71.20
40630;DHT22;26329;40.388;-3.710;2023-02-03T07:14:30;2.10;71.20
40630;DHT22;26329;40.388;-3.710;2023-02-03T07:24:33;2.10;71.30
40630;DHT22;26329;40.388;-3.710;2023-02-03T07:34:35;2.10;71.40
40630;DHT22;26329;40.388;-3.710;2023-02-03T07:44:36;2.10;71.50
40630;DHT22;26329;40.388;-3.710;2023-02-03T07:54:38;2.10;71.30
40630;DHT22;26329;40.388;-3.710;2023-02-03T08:04:39;2.00;70.90
40630;DHT22;26329;40.388;-3.710;2023-02-03T08:14:41;2.00;70.80
40630;DHT22;26329;40.388;-3.710;2023-02-03T08:24:44;1.90;69.90
40630;DHT22;26329;40.388;-3.710;2023-02-03T08:34:48;1.90;69.90
40630;DHT22;26329;40.388;-3.710;2023-02-03T08:44:50;1.90;69.80
40630;DHT22;26329;40.388;-3.710;2023-02-03T08:54:52;2.10;68.90
40630;DHT22;26329;40.388;-3.710;2023-02-03T09:04:54;2.40;68.10
40630;DHT22;26329;40.388;-3.710;2023-02-03T09:14:56;2.90;67.00
40630;DHT22;26329;40.388;-3.710;2023-02-03T09:24:57;3.20;66.10
40630;DHT22;26329;40.388;-3.710;2023-02-03T09:34:59;3.70;65.10
40630;DHT22;26329;40.388;-3.710;2023-02-03T09:45:33;4.20;64.10
40630;DHT22;26329;40.388;-3.710;2023-02-03T09:55:38;4.70;63.10
40630;DHT22;26329;40.388;-3.710;2023-02-03T10:26:20;6.30;58.30
40630;DHT22;26329;40.388;-3.710;2023-02-03T10:46:48;7.20;54.60
40630;DHT22;26329;40.388;-3.710;2023-02-03T10:56:49;7.70;52.90
40630;DHT22;26329;40.388;-3.710;2023-02-03T11:06:59;8.20;50.60
40630;DHT22;26329;40.388;-3.710;2023-02-03T11:17:08;8.70;50.00
40630;DHT22;26329;40.388;-3.710;2023-02-03T11:27:13;9.30;48.40
40630;DHT22;26329;40.388;-3.710;2023-02-03T11:47:27;10.00;44.80
40630;DHT22;26329;40.388;-3.710;2023-02-03T12:29:02;11.10;43.70
40630;DHT22;26329;40.388;-3.710;2023-02-03T12:59:22;11.80;42.70
40630;DHT22;26329;40.388;-3.710;2023-02-03T13:20:04;12.20;40.60
40630;DHT22;26329;40.388;-3.710;2023-02-03T13:40:51;12.70;37.90
40630;DHT22;26329;40.388;-3.710;2023-02-03T13:51:25;12.80;37.40
40630;DHT22;26329;40.388;-3.710;2023-02-03T14:01:35;12.90;37.60
40630;DHT22;26329;40.388;-3.710;2023-02-03T14:11:40;13.10;36.70
40630;DHT22;26329;40.388;-3.710;2023-02-03T14:21:45;13.20;35.80
40630;DHT22;26329;40.388;-3.710;2023-02-03T14:31:59;13.30;36.10
40630;DHT22;26329;40.388;-3.710;2023-02-03T14:42:20;13.20;35.10
40630;DHT22;26329;40.388;-3.710;2023-02-03T15:13:38;13.30;30.70
40630;DHT22;26329;40.388;-3.710;2023-02-03T15:23:43;13.70;25.10
40630;DHT22;26329;40.388;-3.710;2023-02-03T15:33:48;13.50;28.50
40630;DHT22;26329;40.388;-3.710;2023-02-03T15:44:08;13.30;26.20
40630;DHT22;26329;40.388;-3.710;2023-02-03T15:54:15;13.20;27.50
40630;DHT22;26329;40.388;-3.710;2023-02-03T16:04:20;12.90;26.80
40630;DHT22;26329;40.388;-3.710;2023-02-03T16:14:35;12.90;26.00
40630;DHT22;26329;40.388;-3.710;2023-02-03T16:24:39;12.90;26.60
40630;DHT22;26329;40.388;-3.710;2023-02-03T16:34:43;12.70;26.90
40630;DHT22;26329;40.388;-3.710;2023-02-03T16:45:15;12.60;27.20
40630;DHT22;26329;40.388;-3.710;2023-02-03T16:55:36;12.40;26.60
40630;DHT22;26329;40.388;-3.710;2023-02-03T17:05:39;12.30;27.90
40630;DHT22;26329;40.388;-3.710;2023-02-03T17:15:43;12.00;30.80
40630;DHT22;26329;40.388;-3.710;2023-02-03T17:25:46;11.90;32.10
40630;DHT22;26329;40.388;-3.710;2023-02-03T17:36:05;11.70;33.00
40630;DHT22;26329;40.388;-3.710;2023-02-03T17:46:09;11.50;33.80
40630;DHT22;26329;40.388;-3.710;2023-02-03T17:56:13;11.30;35.40
40630;DHT22;26329;40.388;-3.710;2023-02-03T18:06:18;11.10;35.70
40630;DHT22;26329;40.388;-3.710;2023-02-03T18:16:27;11.00;36.00
40630;DHT22;26329;40.388;-3.710;2023-02-03T18:26:34;11.10;44.30
40630;DHT22;26329;40.388;-3.710;2023-02-03T18:36:38;11.00;39.60
40630;DHT22;26329;40.388;-3.710;2023-02-03T18:46:39;10.80;38.10
40630;DHT22;26329;40.388;-3.710;2023-02-03T18:56:42;10.60;38.30
40630;DHT22;26329;40.388;-3.710;2023-02-03T19:06:43;10.50;39.50
40630;DHT22;26329;40.388;-3.710;2023-02-03T19:16:45;10.40;38.80
40630;DHT22;26329;40.388;-3.710;2023-02-03T19:26:50;10.10;39.50
40630;DHT22;26329;40.388;-3.710;2023-02-03T19:36:52;9.90;40.50
40630;DHT22;26329;40.388;-3.710;2023-02-03T19:46:54;10.30;41.10
40630;DHT22;26329;40.388;-3.710;2023-02-03T19:56:56;9.70;41.90
40630;DHT22;26329;40.388;-3.710;2023-02-03T20:06:57;9.30;42.80
40630;DHT22;26329;40.388;-3.710;2023-02-03T20:16:59;9.10;43.50
40630;DHT22;26329;40.388;-3.710;2023-02-03T20:27:03;8.80;45.00
40630;DHT22;26329;40.388;-3.710;2023-02-03T20:37:05;8.80;45.40
40630;DHT22;26329;40.388;-3.710;2023-02-03T20:47:12;8.50;46.10
40630;DHT22;26329;40.388;-3.710;2023-02-03T20:57:16;8.40;46.10
40630;DHT22;26329;40.388;-3.710;2023-02-03T21:07:19;8.40;45.70
40630;DHT22;26329;40.388;-3.710;2023-02-03T21:17:23;8.30;45.90
40630;DHT22;26329;40.388;-3.710;2023-02-03T21:27:28;8.10;47.10
40630;DHT22;26329;40.388;-3.710;2023-02-03T21:37:39;7.70;48.80
40630;DHT22;26329;40.388;-3.710;2023-02-03T21:47:43;7.40;49.60
40630;DHT22;26329;40.388;-3.710;2023-02-03T21:57:48;7.00;51.00
40630;DHT22;26329;40.388;-3.710;2023-02-03T22:07:49;6.70;51.80
40630;DHT22;26329;40.388;-3.710;2023-02-03T22:17:52;6.70;51.10
40630;DHT22;26329;40.388;-3.710;2023-02-03T22:27:54;6.70;51.10
40630;DHT22;26329;40.388;-3.710;2023-02-03T22:37:56;6.60;51.60
40630;DHT22;26329;40.388;-3.710;2023-02-03T22:47:58;6.40;52.40
40630;DHT22;26329;40.388;-3.710;2023-02-03T22:58:00;6.20;52.80
40630;DHT22;26329;40.388;-3.710;2023-02-03T23:08:02;6.00;53.00
40630;DHT22;26329;40.388;-3.710;2023-02-03T23:18:04;5.90;53.70
40630;DHT22;26329;40.388;-3.710;2023-02-03T23:28:06;5.90;54.00
40630;DHT22;26329;40.388;-3.710;2023-02-03T23:38:07;5.70;54.10
40630;DHT22;26329;40.388;-3.710;2023-02-03T23:48:10;5.60;54.20
40630;DHT22;26329;40.388;-3.710;2023-02-03T23:58:12;5.40;54.50
